Latest Weather Observations for Grove

IDT60801

Issued at 10:03 pm EST Saturday 1 October 2016 (issued every 30 minutes, with the page automatically refreshed every 10 minutes)

About weather observations | Map of weather stations | Latest weather observations for TAS | Other Formats
Station Details ID: 094220 Name: GROVE (RESEARCH STATION) Lat: -42.99 Lon: 147.07 Height: 65.0 m
Data from the previous 72 hours. | See also: Recent months at Grove
Date/Time
EST
Temp
°C
App
Temp
°C
Dew
Point
°C
Rel
Hum
%
Delta-T
°C
Wind Press
QNH
hPa
Press
MSL
hPa
Rain since
9am
mm
Dir  Spd
km/h
Gust
km/h
Spd
kts
Gust
kts
01/10:00pm 11.2 9.2 7.2 76 1.9 SW 7 11 4 6 - - 0.2
01/09:30pm 10.4 9.7 8.6 89 0.9 N 2 7 1 4 - - 0.2
01/09:00pm 10.3 9.0 9.1 92 0.6 E 6 9 3 5 - - 0.2
01/08:30pm 10.8 9.4 8.8 87 1.0 WNW 6 9 3 5 - - 0.2
01/08:00pm 11.6 9.7 7.5 76 2.0 WNW 7 13 4 7 - - 0.0
01/07:30pm 12.5 11.2 5.9 64 3.1 W 2 7 1 4 - - 0.0
01/07:00pm 12.5 10.0 6.4 66 2.9 W 9 17 5 9 - - 0.0
01/06:30pm 12.7 12.0 6.9 68 2.8 CALM 0 0 0 0 - - 0.0
01/06:00pm 13.1 10.8 5.7 61 3.5 SW 7 11 4 6 - - 0.0
01/05:30pm 13.1 10.2 6.7 65 3.1 SW 11 22 6 12 - - 0.0
01/05:00pm 13.5 10.7 6.9 64 3.2 SW 11 15 6 8 - - 0.0
01/04:30pm 13.9 10.6 6.2 59 3.7 WSW 13 19 7 10 - - 0.0
01/04:00pm 14.7 9.9 5.4 53 4.4 NW 20 32 11 17 - - 0.0
01/03:30pm 15.5 13.5 7.2 57 4.1 W 7 11 4 6 - - 0.0
01/03:00pm 15.7 12.2 7.0 56 4.3 NW 15 24 8 13 - - 0.0
01/02:30pm 15.9 12.5 7.5 57 4.2 N 15 24 8 13 - - 0.0
01/02:00pm 16.4 12.6 7.4 55 4.5 N 17 26 9 14 - - 0.0
01/01:30pm 15.7 11.4 7.0 56 4.3 NNW 19 32 10 17 - - 0.0
01/01:00pm 15.5 13.1 7.2 57 4.1 NNW 9 19 5 10 - - 0.0
01/12:30pm 15.1 11.3 6.0 54 4.4 NNW 15 26 8 14 - - 0.0
01/12:00pm 14.0 11.8 6.3 60 3.7 E 7 15 4 8 - - 0.0
01/11:30am 13.0 10.7 5.5 60 3.5 E 7 19 4 10 - - 0.0
01/11:00am 11.3 9.3 7.1 75 2.0 SSW 7 9 4 5 - - 0.0
01/10:30am 9.8 7.5 7.3 84 1.2 WSW 9 13 5 7 - - 0.0
01/10:00am 9.4 7.1 7.5 88 0.9 WSW 9 15 5 8 - - 0.0
01/09:30am 9.3 6.9 7.2 87 1.0 SSW 9 15 5 8 - - 0.0
01/09:00am 9.7 7.3 7.2 84 1.2 SW 9 13 5 7 - - 17.0
01/08:30am 10.5 8.3 5.5 71 2.3 ENE 6 9 3 5 - - 17.0
01/08:00am 9.1 6.6 6.5 84 1.2 W 9 17 5 9 - - 17.0
01/07:30am 9.5 5.7 6.0 79 1.6 E 15 24 8 13 - - 17.0
01/07:00am 9.4 4.6 5.4 76 1.8 E 20 28 11 15 - - 16.8
01/06:30am 9.8 6.9 4.9 71 2.2 NE 9 15 5 8 - - 16.4
01/06:00am 9.8 6.1 4.2 68 2.5 ENE 13 24 7 13 - - 16.4
01/05:30am 10.0 6.8 3.3 63 2.9 NNE 9 17 5 9 - - 16.4
01/05:00am 9.5 5.6 3.3 65 2.7 NNE 13 24 7 13 - - 16.4
01/04:30am 9.3 6.1 3.0 65 2.7 NNE 9 15 5 8 - - 16.4
01/04:00am 9.0 5.4 3.2 67 2.5 N 11 19 6 10 - - 16.4
01/03:30am 8.6 4.3 3.5 70 2.2 N 15 20 8 11 - - 16.4
01/03:00am 8.9 4.2 3.1 67 2.5 N 17 24 9 13 - - 16.4
01/02:30am 9.5 4.7 2.4 61 3.0 NNE 17 28 9 15 - - 16.4
01/02:00am 10.2 4.9 1.9 56 3.5 NNE 19 35 10 19 - - 16.4
01/01:30am 10.0 4.6 2.2 58 3.3 N 20 28 11 15 - - 16.4
01/01:00am 10.3 5.7 1.8 55 3.6 NNE 15 28 8 15 - - 16.4
01/12:30am 10.8 5.8 1.5 52 3.9 NE 17 30 9 16 - - 16.4
01/12:00am 10.5 5.2 2.0 55 3.6 ENE 19 26 10 14 - - 16.4
 
Date/Time
EST
Temp
°C
App
Temp
°C
Dew
Point
°C
Rel
Hum
%
Delta-T
°C
Wind Press
QNH
hPa
Press
MSL
hPa
Rain since
9am
mm
Dir  Spd
km/h
Gust
km/h
Spd
kts
Gust
kts
30/11:30pm 10.5 5.8 2.9 59 3.3 E 17 26 9 14 - - 16.4
30/11:00pm 10.6 6.3 3.3 60 3.2 E 15 30 8 16 - - 16.4
30/10:30pm 10.5 5.8 3.4 61 3.1 E 17 43 9 23 - - 16.4
30/10:00pm 10.8 6.6 3.8 62 3.1 NE 15 24 8 13 - - 16.4
30/09:30pm 11.0 6.0 3.5 60 3.3 E 19 41 10 22 - - 16.4
30/09:00pm 10.9 5.7 3.7 61 3.2 E 20 39 11 21 - - 16.4
30/08:30pm 11.2 6.0 3.5 59 3.4 NE 20 32 11 17 - - 16.4
30/08:00pm 11.2 6.7 4.1 61 3.2 NE 17 24 9 13 - - 16.4
30/07:30pm 11.4 6.9 4.0 60 3.3 NE 17 26 9 14 - - 16.4
30/07:00pm 11.3 6.6 5.0 65 2.9 ENE 19 24 10 13 - - 16.4
30/06:30pm 11.8 7.7 4.3 60 3.4 N 15 28 8 15 - - 16.4
30/06:00pm 11.9 6.3 3.6 57 3.7 NNE 22 37 12 20 - - 16.4
30/05:30pm 11.8 7.7 4.5 61 3.3 NNE 15 26 8 14 - - 16.4
30/05:00pm 11.8 10.3 6.8 71 2.4 W 4 7 2 4 - - 16.4
30/04:30pm 11.3 8.1 6.9 74 2.1 NW 13 24 7 13 - - 16.2
30/04:00pm 12.1 7.9 7.6 74 2.2 N 19 28 10 15 - - 16.2
30/03:30pm 13.5 11.2 9.0 74 2.3 NE 11 13 6 7 - - 16.2
30/03:00pm 13.0 11.4 10.3 84 1.4 E 9 13 5 7 - - 16.2
30/02:30pm 13.3 11.6 9.8 79 1.8 E 9 15 5 8 - - 16.2
30/02:00pm 12.9 11.2 10.0 82 1.5 E 9 15 5 8 - - 16.2
30/01:30pm 13.4 10.7 10.5 82 1.5 ESE 15 22 8 12 - - 16.2
30/01:00pm 12.4 10.5 10.5 88 1.0 ESE 11 33 6 18 - - 15.8
30/12:30pm 13.0 10.6 9.9 81 1.6 SSW 13 35 7 19 - - 15.2
30/12:00pm 13.6 9.8 9.1 74 2.3 SE 19 33 10 18 - - 15.2
30/11:30am 13.2 9.0 9.7 79 1.8 SE 22 32 12 17 - - 15.2
30/11:00am 13.1 9.7 10.6 85 1.3 E 19 37 10 20 - - 15.0
30/10:30am 12.3 8.3 10.6 89 0.9 E 22 35 12 19 - - 13.6
30/10:00am 12.3 7.2 10.6 89 0.9 E 28 44 15 24 - - 11.2
30/09:44am 12.5 7.4 10.6 88 1.0 ESE 28 46 15 25 - - 7.8
30/09:30am 12.5 7.5 11.0 90 0.8 ESE 28 41 15 22 - - 5.6
30/09:00am 11.5 8.7 11.3 99 0.1 SE 17 26 9 14 - - 78.4
30/08:30am 12.0 8.8 9.8 86 1.1 S 17 32 9 17 - - 72.0
30/08:00am 11.7 8.4 9.7 87 1.0 S 17 35 9 19 - - 67.4
30/07:30am 11.9 8.1 9.9 87 1.0 E 20 35 11 19 - - 63.4
30/07:00am 12.1 8.9 10.0 87 1.1 E 17 35 9 19 - - 60.2
30/06:30am 11.9 9.1 9.9 87 1.0 E 15 33 8 18 - - 57.8
30/06:00am 12.2 8.0 9.9 86 1.2 E 22 44 12 24 - - 55.2
30/05:30am 11.7 9.9 10.9 95 0.4 ENE 11 17 6 9 - - 50.8
30/05:00am 12.1 8.1 10.4 89 0.9 E 22 35 12 19 - - 45.0
30/04:30am 12.2 8.8 10.7 90 0.8 E 19 30 10 16 - - 43.0
30/04:00am 12.2 9.1 10.3 88 1.0 E 17 32 9 17 - - 41.6
30/03:30am 12.3 7.9 10.4 88 1.0 ENE 24 43 13 23 - - 39.2
30/03:00am 11.6 10.8 11.0 96 0.3 N 6 9 3 5 - - 36.4
30/02:30am 12.0 10.6 10.8 92 0.6 NNE 9 19 5 10 - - 28.8
30/02:00am 11.6 9.8 10.8 95 0.4 NE 11 20 6 11 - - 25.2
30/01:30am 11.4 9.5 10.6 95 0.4 N 11 20 6 11 - - 23.2
30/01:00am 11.5 10.2 10.1 91 0.7 NE 7 13 4 7 - - 21.2
30/12:30am 11.6 9.1 9.8 89 0.9 ENE 13 24 7 13 - - 20.8
30/12:00am 11.9 10.3 10.1 89 0.9 ENE 9 15 5 8 - - 20.4
 
Date/Time
EST
Temp
°C
App
Temp
°C
Dew
Point
°C
Rel
Hum
%
Delta-T
°C
Wind Press
QNH
hPa
Press
MSL
hPa
Rain since
9am
mm
Dir  Spd
km/h
Gust
km/h
Spd
kts
Gust
kts
29/11:30pm 12.1 8.7 10.6 90 0.8 ENE 19 28 10 15 - - 19.6
29/11:00pm 12.0 8.4 10.7 92 0.7 ENE 20 35 11 19 - - 17.8
29/10:30pm 12.2 7.7 10.1 87 1.1 E 24 39 13 21 - - 16.8
29/10:00pm 12.1 8.0 10.2 88 1.0 ENE 22 44 12 24 - - 16.2
29/09:30pm 12.0 7.9 10.1 88 1.0 ENE 22 43 12 23 - - 14.6
29/09:00pm 12.0 6.7 9.8 86 1.1 ENE 28 48 15 26 - - 12.4
29/08:30pm 12.0 6.7 9.8 86 1.1 ENE 28 46 15 25 - - 9.8
29/08:15pm 11.9 6.2 9.9 87 1.0 E 30 48 16 26 - - 8.8
29/08:00pm 12.0 8.8 10.1 88 1.0 NE 17 46 9 25 - - 7.6
29/07:30pm 12.4 8.5 9.4 82 1.5 E 20 33 11 18 - - 6.4
29/07:00pm 12.5 8.1 9.1 80 1.7 E 22 44 12 24 - - 6.2
29/06:30pm 12.5 7.9 9.6 82 1.5 E 24 39 13 21 - - 5.8
29/06:00pm 12.6 8.6 10.3 86 1.2 E 22 39 12 21 - - 5.2
29/05:30pm 12.8 7.6 10.3 85 1.3 E 28 39 15 21 - - 4.6
29/05:00pm 12.7 8.0 10.6 87 1.1 E 26 41 14 22 - - 4.2
29/04:43pm 13.0 7.8 10.3 84 1.4 E 28 52 15 28 - - 4.2
29/04:30pm 12.8 7.7 10.7 87 1.1 E 28 39 15 21 - - 4.0
29/04:00pm 13.0 8.3 10.7 86 1.2 E 26 44 14 24 - - 3.6
29/03:30pm 13.0 8.7 10.7 86 1.2 E 24 37 13 20 - - 3.4
29/03:04pm 13.5 8.3 10.4 81 1.6 E 28 46 15 25 - - 3.0
29/03:00pm 13.2 8.6 10.9 86 1.2 E 26 44 14 24 - - 3.0
29/02:30pm 13.3 8.6 10.6 84 1.4 E 26 43 14 23 - - 2.8
29/02:00pm 13.2 8.2 10.9 86 1.2 E 28 39 15 21 - - 2.6
29/01:30pm 13.3 9.4 10.8 85 1.3 E 22 41 12 22 - - 2.6
29/01:00pm 13.8 9.8 10.6 81 1.7 E 22 37 12 20 - - 2.6
29/12:30pm 14.1 10.1 10.3 78 2.0 E 22 39 12 21 - - 2.6
29/12:00pm 14.0 10.4 10.4 79 1.9 E 20 35 11 19 - - 2.6
29/11:30am 13.3 12.0 11.4 88 1.0 NE 9 17 5 9 - - 2.4
29/11:00am 13.1 11.5 11.4 89 0.9 NE 11 20 6 11 - - 2.4
29/10:30am 13.0 11.3 11.3 89 0.9 NE 11 19 6 10 - - 1.2
29/10:00am 13.6 9.8 9.9 78 1.9 ENE 20 28 11 15 - - 0.0
29/09:30am 14.9 11.8 9.0 68 3.0 ENE 15 24 8 13 - - 0.0
29/09:00am 14.6 10.6 8.9 68 2.9 ENE 20 33 11 18 - - 0.0
29/08:30am 13.3 10.7 9.4 77 2.0 ENE 13 22 7 12 - - 0.0
29/08:00am 13.3 10.5 8.7 73 2.3 NE 13 28 7 15 - - 0.0
29/07:30am 12.3 9.5 8.7 79 1.8 ENE 13 20 7 11 - - 0.0
29/07:00am 7.7 5.5 6.2 90 0.7 W 7 11 4 6 - - 0.0
29/06:30am 7.0 4.3 5.4 89 0.7 WSW 9 15 5 8 - - 0.0
29/06:00am 6.5 3.8 5.4 93 0.5 SW 9 13 5 7 - - 0.0
29/05:30am 6.2 3.4 5.3 94 0.4 SW 9 15 5 8 - - 0.0
29/05:00am 6.1 3.6 5.0 93 0.5 S 7 9 4 5 - - 0.0
29/04:30am 5.4 2.5 4.9 97 0.2 SW 9 13 5 7 - - 0.0
29/04:00am 5.2 2.6 4.0 92 0.5 N 7 11 4 6 - - 0.0
29/03:30am 5.4 2.8 4.0 91 0.6 NNE 7 9 4 5 - - 0.0
29/03:00am 4.7 2.2 3.7 93 0.4 NNE 6 11 3 6 - - 0.0
29/02:30am 4.5 2.0 4.0 97 0.2 NNW 6 9 3 5 - - 0.0
29/02:00am 4.6 3.4 4.4 99 0.1 CALM 0 0 0 0 - - 0.0
29/01:30am 5.1 3.2 4.9 99 0.1 WSW 4 9 2 5 - - 0.0
29/01:00am 5.5 3.0 5.0 97 0.2 N 7 9 4 5 - - 0.0
29/12:30am 5.9 4.1 5.2 95 0.3 NW 4 7 2 4 - - 0.0
29/12:00am 6.9 4.8 5.8 93 0.5 SW 6 7 3 4 - - 0.0
 
Date/Time
EST
Temp
°C
App
Temp
°C
Dew
Point
°C
Rel
Hum
%
Delta-T
°C
Wind Press
QNH
hPa
Press
MSL
hPa
Rain since
9am
mm
Dir  Spd
km/h
Gust
km/h
Spd
kts
Gust
kts
28/11:30pm 8.0 6.8 6.3 89 0.8 WNW 2 6 1 3 - - 0.0
28/11:00pm 8.2 7.0 6.5 89 0.8 NNW 2 6 1 3 - - 0.0
28/10:30pm 10.0 8.1 6.6 79 1.6 WNW 6 9 3 5 - - 0.0

Other Formats:

Comma delimited format used in spreadsheet applications
http://www.bom.gov.au/fwo/IDT60801/IDT60801.95977.axf

JavaScript Object Notation format (JSON) in row-major order
http://www.bom.gov.au/fwo/IDT60801/IDT60801.95977.json